sensor_id;sensor_type;location;lat;lon;timestamp;P1;durP1;ratioP1;P2;durP2;ratioP2
25870;SDS011;13689;48.590;7.752;2023-06-05T00:00:54;5.68;;;1.98;;
25870;SDS011;13689;48.590;7.752;2023-06-05T00:03:19;5.07;;;1.90;;
25870;SDS011;13689;48.590;7.752;2023-06-05T00:05:45;3.72;;;1.83;;
25870;SDS011;13689;48.590;7.752;2023-06-05T00:08:11;3.35;;;1.70;;
25870;SDS011;13689;48.590;7.752;2023-06-05T00:10:37;5.25;;;1.92;;
25870;SDS011;13689;48.590;7.752;2023-06-05T00:13:02;7.80;;;1.90;;
25870;SDS011;13689;48.590;7.752;2023-06-05T00:15:28;4.68;;;2.10;;
25870;SDS011;13689;48.590;7.752;2023-06-05T00:17:56;3.75;;;1.67;;
25870;SDS011;13689;48.590;7.752;2023-06-05T00:20:21;5.38;;;1.83;;
25870;SDS011;13689;48.590;7.752;2023-06-05T00:22:47;2.47;;;1.92;;
25870;SDS011;13689;48.590;7.752;2023-06-05T00:25:13;3.00;;;2.00;;
25870;SDS011;13689;48.590;7.752;2023-06-05T00:27:39;2.60;;;2.05;;
25870;SDS011;13689;48.590;7.752;2023-06-05T00:30:06;2.03;;;1.75;;
25870;SDS011;13689;48.590;7.752;2023-06-05T00:32:34;3.90;;;1.65;;
25870;SDS011;13689;48.590;7.752;2023-06-05T00:34:59;3.25;;;2.72;;
25870;SDS011;13689;48.590;7.752;2023-06-05T00:37:25;2.63;;;1.98;;
25870;SDS011;13689;48.590;7.752;2023-06-05T00:39:52;3.92;;;1.67;;
25870;SDS011;13689;48.590;7.752;2023-06-05T00:42:18;6.05;;;2.15;;
25870;SDS011;13689;48.590;7.752;2023-06-05T00:44:43;2.65;;;2.03;;
25870;SDS011;13689;48.590;7.752;2023-06-05T00:47:09;6.28;;;1.92;;
25870;SDS011;13689;48.590;7.752;2023-06-05T00:49:35;4.88;;;1.80;;
25870;SDS011;13689;48.590;7.752;2023-06-05T00:52:01;2.55;;;1.83;;
25870;SDS011;13689;48.590;7.752;2023-06-05T00:54:27;3.70;;;1.55;;
25870;SDS011;13689;48.590;7.752;2023-06-05T00:56:53;5.20;;;1.95;;
25870;SDS011;13689;48.590;7.752;2023-06-05T00:59:19;3.97;;;2.35;;
25870;SDS011;13689;48.590;7.752;2023-06-05T01:01:45;7.40;;;1.88;;
25870;SDS011;13689;48.590;7.752;2023-06-05T01:04:11;2.10;;;1.63;;
25870;SDS011;13689;48.590;7.752;2023-06-05T01:06:36;3.72;;;1.85;;
25870;SDS011;13689;48.590;7.752;2023-06-05T01:09:11;5.72;;;2.22;;
25870;SDS011;13689;48.590;7.752;2023-06-05T01:11:52;3.97;;;2.38;;
25870;SDS011;13689;48.590;7.752;2023-06-05T01:14:24;2.83;;;1.88;;
25870;SDS011;13689;48.590;7.752;2023-06-05T01:16:53;5.85;;;1.90;;
25870;SDS011;13689;48.590;7.752;2023-06-05T01:19:20;2.90;;;1.75;;
25870;SDS011;13689;48.590;7.752;2023-06-05T01:21:48;1.95;;;1.77;;
25870;SDS011;13689;48.590;7.752;2023-06-05T01:24:14;5.10;;;2.05;;
25870;SDS011;13689;48.590;7.752;2023-06-05T01:26:57;6.82;;;2.25;;
25870;SDS011;13689;48.590;7.752;2023-06-05T01:32:00;2.00;;;1.80;;
25870;SDS011;13689;48.590;7.752;2023-06-05T01:34:31;2.17;;;1.60;;
25870;SDS011;13689;48.590;7.752;2023-06-05T01:36:58;2.72;;;1.90;;
25870;SDS011;13689;48.590;7.752;2023-06-05T01:39:24;5.40;;;1.92;;
25870;SDS011;13689;48.590;7.752;2023-06-05T01:41:51;4.20;;;2.00;;
25870;SDS011;13689;48.590;7.752;2023-06-05T01:44:19;2.53;;;1.98;;
25870;SDS011;13689;48.590;7.752;2023-06-05T01:46:45;3.13;;;2.10;;
25870;SDS011;13689;48.590;7.752;2023-06-05T01:49:11;6.05;;;1.77;;
25870;SDS011;13689;48.590;7.752;2023-06-05T01:51:38;2.17;;;1.95;;
25870;SDS011;13689;48.590;7.752;2023-06-05T01:54:03;2.63;;;1.98;;
25870;SDS011;13689;48.590;7.752;2023-06-05T01:56:30;5.22;;;1.52;;
25870;SDS011;13689;48.590;7.752;2023-06-05T01:58:57;10.27;;;1.95;;
25870;SDS011;13689;48.590;7.752;2023-06-05T02:01:23;2.88;;;1.90;;
25870;SDS011;13689;48.590;7.752;2023-06-05T02:03:49;4.10;;;2.05;;
25870;SDS011;13689;48.590;7.752;2023-06-05T02:06:18;8.43;;;1.73;;
25870;SDS011;13689;48.590;7.752;2023-06-05T02:08:43;8.88;;;1.73;;
25870;SDS011;13689;48.590;7.752;2023-06-05T02:11:09;2.15;;;1.65;;
25870;SDS011;13689;48.590;7.752;2023-06-05T02:13:39;2.70;;;1.63;;
25870;SDS011;13689;48.590;7.752;2023-06-05T02:16:05;4.93;;;2.10;;
25870;SDS011;13689;48.590;7.752;2023-06-05T02:18:34;5.57;;;2.28;;
25870;SDS011;13689;48.590;7.752;2023-06-05T02:21:02;7.40;;;2.10;;
25870;SDS011;13689;48.590;7.752;2023-06-05T02:23:28;4.22;;;2.38;;
25870;SDS011;13689;48.590;7.752;2023-06-05T02:25:53;4.00;;;1.73;;
25870;SDS011;13689;48.590;7.752;2023-06-05T02:28:19;3.85;;;1.92;;
25870;SDS011;13689;48.590;7.752;2023-06-05T02:30:45;3.90;;;2.08;;
25870;SDS011;13689;48.590;7.752;2023-06-05T02:33:13;3.42;;;1.83;;
25870;SDS011;13689;48.590;7.752;2023-06-05T02:35:39;5.47;;;1.85;;
25870;SDS011;13689;48.590;7.752;2023-06-05T02:38:05;2.38;;;1.75;;
25870;SDS011;13689;48.590;7.752;2023-06-05T02:40:32;1.52;;;1.42;;
25870;SDS011;13689;48.590;7.752;2023-06-05T02:42:58;1.70;;;1.50;;
25870;SDS011;13689;48.590;7.752;2023-06-05T02:45:24;2.22;;;1.90;;
25870;SDS011;13689;48.590;7.752;2023-06-05T02:47:49;3.90;;;1.83;;
25870;SDS011;13689;48.590;7.752;2023-06-05T02:50:15;2.40;;;1.83;;
25870;SDS011;13689;48.590;7.752;2023-06-05T02:52:40;3.67;;;1.75;;
25870;SDS011;13689;48.590;7.752;2023-06-05T02:55:06;4.32;;;1.88;;
25870;SDS011;13689;48.590;7.752;2023-06-05T02:57:33;2.40;;;1.63;;
25870;SDS011;13689;48.590;7.752;2023-06-05T03:00:09;1.95;;;1.73;;
25870;SDS011;13689;48.590;7.752;2023-06-05T03:02:39;3.67;;;1.65;;
25870;SDS011;13689;48.590;7.752;2023-06-05T03:05:05;6.43;;;2.00;;
25870;SDS011;13689;48.590;7.752;2023-06-05T03:07:32;2.58;;;1.67;;
25870;SDS011;13689;48.590;7.752;2023-06-05T03:09:59;3.80;;;1.70;;
25870;SDS011;13689;48.590;7.752;2023-06-05T03:12:25;3.20;;;1.95;;
25870;SDS011;13689;48.590;7.752;2023-06-05T03:14:51;1.95;;;1.63;;
25870;SDS011;13689;48.590;7.752;2023-06-05T03:17:17;1.73;;;1.60;;
25870;SDS011;13689;48.590;7.752;2023-06-05T03:19:42;2.63;;;1.63;;
25870;SDS011;13689;48.590;7.752;2023-06-05T03:22:08;2.97;;;1.45;;
25870;SDS011;13689;48.590;7.752;2023-06-05T03:24:33;4.57;;;1.70;;
25870;SDS011;13689;48.590;7.752;2023-06-05T03:27:02;2.08;;;1.55;;
25870;SDS011;13689;48.590;7.752;2023-06-05T03:29:29;2.03;;;1.25;;
25870;SDS011;13689;48.590;7.752;2023-06-05T03:31:55;2.35;;;2.00;;
25870;SDS011;13689;48.590;7.752;2023-06-05T03:34:20;5.25;;;1.83;;
25870;SDS011;13689;48.590;7.752;2023-06-05T03:36:50;2.67;;;1.60;;
25870;SDS011;13689;48.590;7.752;2023-06-05T03:39:17;3.88;;;1.77;;
25870;SDS011;13689;48.590;7.752;2023-06-05T03:41:43;2.75;;;1.50;;
25870;SDS011;13689;48.590;7.752;2023-06-05T03:44:08;3.53;;;1.77;;
25870;SDS011;13689;48.590;7.752;2023-06-05T03:46:34;5.47;;;1.83;;
25870;SDS011;13689;48.590;7.752;2023-06-05T03:49:00;5.20;;;1.73;;
25870;SDS011;13689;48.590;7.752;2023-06-05T03:51:33;3.95;;;1.50;;
25870;SDS011;13689;48.590;7.752;2023-06-05T03:53:59;8.18;;;2.15;;
25870;SDS011;13689;48.590;7.752;2023-06-05T03:56:25;3.78;;;2.20;;
25870;SDS011;13689;48.590;7.752;2023-06-05T03:58:59;3.70;;;1.83;;
25870;SDS011;13689;48.590;7.752;2023-06-05T04:01:34;2.83;;;2.20;;
25870;SDS011;13689;48.590;7.752;2023-06-05T04:04:02;3.17;;;1.70;;
25870;SDS011;13689;48.590;7.752;2023-06-05T04:06:30;2.53;;;1.63;;
25870;SDS011;13689;48.590;7.752;2023-06-05T04:08:57;1.60;;;1.38;;
25870;SDS011;13689;48.590;7.752;2023-06-05T04:11:23;4.93;;;1.42;;
25870;SDS011;13689;48.590;7.752;2023-06-05T04:13:52;2.25;;;1.40;;
25870;SDS011;13689;48.590;7.752;2023-06-05T04:16:18;3.47;;;1.50;;
25870;SDS011;13689;48.590;7.752;2023-06-05T04:18:44;2.88;;;1.42;;
25870;SDS011;13689;48.590;7.752;2023-06-05T04:21:10;1.73;;;1.63;;
25870;SDS011;13689;48.590;7.752;2023-06-05T04:23:35;4.95;;;1.55;;
25870;SDS011;13689;48.590;7.752;2023-06-05T04:26:01;2.88;;;1.20;;
25870;SDS011;13689;48.590;7.752;2023-06-05T04:28:28;5.35;;;1.67;;
25870;SDS011;13689;48.590;7.752;2023-06-05T04:30:54;14.60;;;6.25;;
25870;SDS011;13689;48.590;7.752;2023-06-05T04:33:20;3.58;;;1.73;;
25870;SDS011;13689;48.590;7.752;2023-06-05T04:35:46;2.33;;;1.70;;
25870;SDS011;13689;48.590;7.752;2023-06-05T04:38:12;2.42;;;1.48;;
25870;SDS011;13689;48.590;7.752;2023-06-05T04:40:37;5.80;;;1.55;;
25870;SDS011;13689;48.590;7.752;2023-06-05T04:43:03;4.85;;;1.20;;
25870;SDS011;13689;48.590;7.752;2023-06-05T04:45:29;2.50;;;1.58;;
25870;SDS011;13689;48.590;7.752;2023-06-05T04:47:54;4.85;;;1.50;;
25870;SDS011;13689;48.590;7.752;2023-06-05T04:50:23;5.60;;;1.60;;
25870;SDS011;13689;48.590;7.752;2023-06-05T04:52:51;2.97;;;1.67;;
25870;SDS011;13689;48.590;7.752;2023-06-05T04:55:18;1.60;;;1.37;;
25870;SDS011;13689;48.590;7.752;2023-06-05T04:57:44;2.83;;;1.35;;
25870;SDS011;13689;48.590;7.752;2023-06-05T05:00:10;2.22;;;1.13;;
25870;SDS011;13689;48.590;7.752;2023-06-05T05:02:37;2.20;;;1.60;;
25870;SDS011;13689;48.590;7.752;2023-06-05T05:05:02;4.95;;;1.63;;
25870;SDS011;13689;48.590;7.752;2023-06-05T05:07:29;6.55;;;1.40;;
25870;SDS011;13689;48.590;7.752;2023-06-05T05:09:54;2.22;;;1.20;;
25870;SDS011;13689;48.590;7.752;2023-06-05T05:12:20;2.42;;;1.35;;
25870;SDS011;13689;48.590;7.752;2023-06-05T05:14:46;3.70;;;1.50;;
25870;SDS011;13689;48.590;7.752;2023-06-05T05:17:11;4.25;;;2.10;;
25870;SDS011;13689;48.590;7.752;2023-06-05T05:19:40;1.50;;;1.10;;
25870;SDS011;13689;48.590;7.752;2023-06-05T05:22:06;4.15;;;1.20;;
25870;SDS011;13689;48.590;7.752;2023-06-05T05:24:32;1.95;;;1.50;;
25870;SDS011;13689;48.590;7.752;2023-06-05T05:26:57;4.97;;;1.52;;
25870;SDS011;13689;48.590;7.752;2023-06-05T05:29:23;2.33;;;1.70;;
25870;SDS011;13689;48.590;7.752;2023-06-05T05:31:49;2.25;;;1.50;;
25870;SDS011;13689;48.590;7.752;2023-06-05T05:34:16;4.43;;;1.17;;
25870;SDS011;13689;48.590;7.752;2023-06-05T05:36:42;5.15;;;1.33;;
25870;SDS011;13689;48.590;7.752;2023-06-05T05:39:07;7.35;;;3.85;;
25870;SDS011;13689;48.590;7.752;2023-06-05T05:41:33;4.72;;;1.45;;
25870;SDS011;13689;48.590;7.752;2023-06-05T05:43:59;3.72;;;1.73;;
25870;SDS011;13689;48.590;7.752;2023-06-05T05:46:25;5.97;;;1.42;;
25870;SDS011;13689;48.590;7.752;2023-06-05T05:48:51;2.95;;;1.27;;
25870;SDS011;13689;48.590;7.752;2023-06-05T05:51:16;2.50;;;0.88;;
25870;SDS011;13689;48.590;7.752;2023-06-05T05:53:42;4.13;;;1.20;;
25870;SDS011;13689;48.590;7.752;2023-06-05T05:56:07;3.90;;;1.50;;
25870;SDS011;13689;48.590;7.752;2023-06-05T05:58:33;3.65;;;1.42;;
25870;SDS011;13689;48.590;7.752;2023-06-05T06:00:59;3.50;;;1.50;;
25870;SDS011;13689;48.590;7.752;2023-06-05T06:03:25;7.47;;;1.83;;
25870;SDS011;13689;48.590;7.752;2023-06-05T06:05:54;4.20;;;1.13;;
25870;SDS011;13689;48.590;7.752;2023-06-05T06:08:21;2.63;;;1.38;;
25870;SDS011;13689;48.590;7.752;2023-06-05T06:10:47;3.08;;;1.50;;
25870;SDS011;13689;48.590;7.752;2023-06-05T06:13:13;4.70;;;1.20;;
25870;SDS011;13689;48.590;7.752;2023-06-05T06:15:38;3.75;;;1.40;;
25870;SDS011;13689;48.590;7.752;2023-06-05T06:18:05;6.28;;;1.88;;
25870;SDS011;13689;48.590;7.752;2023-06-05T06:20:31;9.73;;;1.20;;
25870;SDS011;13689;48.590;7.752;2023-06-05T06:22:58;2.28;;;1.20;;
25870;SDS011;13689;48.590;7.752;2023-06-05T06:25:24;5.88;;;1.33;;
25870;SDS011;13689;48.590;7.752;2023-06-05T06:27:54;5.35;;;1.80;;
25870;SDS011;13689;48.590;7.752;2023-06-05T06:30:25;3.58;;;1.33;;
25870;SDS011;13689;48.590;7.752;2023-06-05T06:32:52;3.97;;;1.13;;
25870;SDS011;13689;48.590;7.752;2023-06-05T06:35:21;4.32;;;1.48;;
25870;SDS011;13689;48.590;7.752;2023-06-05T06:37:48;2.63;;;1.20;;
25870;SDS011;13689;48.590;7.752;2023-06-05T06:40:14;15.20;;;2.38;;
25870;SDS011;13689;48.590;7.752;2023-06-05T06:42:40;5.28;;;1.50;;
25870;SDS011;13689;48.590;7.752;2023-06-05T06:45:05;3.67;;;1.45;;
25870;SDS011;13689;48.590;7.752;2023-06-05T06:47:31;8.27;;;1.70;;
25870;SDS011;13689;48.590;7.752;2023-06-05T06:49:58;3.33;;;1.50;;
25870;SDS011;13689;48.590;7.752;2023-06-05T06:52:24;1.88;;;1.42;;
25870;SDS011;13689;48.590;7.752;2023-06-05T06:54:50;9.32;;;1.50;;
25870;SDS011;13689;48.590;7.752;2023-06-05T06:57:15;4.10;;;1.10;;
25870;SDS011;13689;48.590;7.752;2023-06-05T06:59:41;3.42;;;1.42;;
25870;SDS011;13689;48.590;7.752;2023-06-05T07:02:08;2.75;;;1.20;;
25870;SDS011;13689;48.590;7.752;2023-06-05T07:04:38;3.50;;;1.80;;
25870;SDS011;13689;48.590;7.752;2023-06-05T07:09:32;2.67;;;1.25;;
25870;SDS011;13689;48.590;7.752;2023-06-05T07:11:58;9.52;;;1.40;;
25870;SDS011;13689;48.590;7.752;2023-06-05T07:14:29;3.05;;;1.20;;
25870;SDS011;13689;48.590;7.752;2023-06-05T07:16:55;1.40;;;1.20;;
25870;SDS011;13689;48.590;7.752;2023-06-05T07:19:23;1.52;;;1.30;;
25870;SDS011;13689;48.590;7.752;2023-06-05T07:21:49;1.95;;;1.20;;
25870;SDS011;13689;48.590;7.752;2023-06-05T07:24:15;3.63;;;1.60;;
25870;SDS011;13689;48.590;7.752;2023-06-05T07:26:43;3.53;;;1.65;;
25870;SDS011;13689;48.590;7.752;2023-06-05T07:29:10;2.75;;;1.17;;
25870;SDS011;13689;48.590;7.752;2023-06-05T07:31:35;4.32;;;1.50;;
25870;SDS011;13689;48.590;7.752;2023-06-05T07:34:01;4.57;;;1.40;;
25870;SDS011;13689;48.590;7.752;2023-06-05T07:36:28;5.15;;;1.20;;
25870;SDS011;13689;48.590;7.752;2023-06-05T07:38:54;4.50;;;1.27;;
25870;SDS011;13689;48.590;7.752;2023-06-05T07:41:21;9.38;;;1.65;;
25870;SDS011;13689;48.590;7.752;2023-06-05T07:43:47;4.90;;;1.65;;
25870;SDS011;13689;48.590;7.752;2023-06-05T07:46:12;6.97;;;1.48;;
25870;SDS011;13689;48.590;7.752;2023-06-05T07:48:40;1.75;;;1.60;;
25870;SDS011;13689;48.590;7.752;2023-06-05T07:51:06;2.58;;;1.50;;
25870;SDS011;13689;48.590;7.752;2023-06-05T07:53:33;1.55;;;1.40;;
25870;SDS011;13689;48.590;7.752;2023-06-05T07:55:59;6.15;;;1.50;;
25870;SDS011;13689;48.590;7.752;2023-06-05T07:58:24;3.35;;;1.48;;
25870;SDS011;13689;48.590;7.752;2023-06-05T08:00:52;4.95;;;1.52;;
25870;SDS011;13689;48.590;7.752;2023-06-05T08:03:18;6.03;;;1.80;;
25870;SDS011;13689;48.590;7.752;2023-06-05T08:05:51;5.63;;;1.35;;
25870;SDS011;13689;48.590;7.752;2023-06-05T08:08:25;5.43;;;1.77;;
25870;SDS011;13689;48.590;7.752;2023-06-05T08:10:50;3.30;;;1.50;;
25870;SDS011;13689;48.590;7.752;2023-06-05T08:13:16;2.28;;;1.48;;
25870;SDS011;13689;48.590;7.752;2023-06-05T08:15:52;5.25;;;1.30;;
25870;SDS011;13689;48.590;7.752;2023-06-05T08:18:18;4.70;;;1.40;;
25870;SDS011;13689;48.590;7.752;2023-06-05T08:20:43;3.20;;;1.30;;
25870;SDS011;13689;48.590;7.752;2023-06-05T08:23:09;4.55;;;1.67;;
25870;SDS011;13689;48.590;7.752;2023-06-05T08:25:35;4.38;;;1.45;;
25870;SDS011;13689;48.590;7.752;2023-06-05T08:28:01;4.45;;;1.67;;
25870;SDS011;13689;48.590;7.752;2023-06-05T08:30:26;1.85;;;1.25;;
25870;SDS011;13689;48.590;7.752;2023-06-05T08:32:52;3.17;;;1.70;;
25870;SDS011;13689;48.590;7.752;2023-06-05T08:35:17;4.88;;;1.50;;
25870;SDS011;13689;48.590;7.752;2023-06-05T08:37:43;3.33;;;1.85;;
25870;SDS011;13689;48.590;7.752;2023-06-05T08:40:08;4.18;;;1.60;;
25870;SDS011;13689;48.590;7.752;2023-06-05T08:42:37;3.03;;;1.40;;
25870;SDS011;13689;48.590;7.752;2023-06-05T08:45:09;5.65;;;1.40;;
25870;SDS011;13689;48.590;7.752;2023-06-05T08:47:39;5.28;;;1.50;;
25870;SDS011;13689;48.590;7.752;2023-06-05T08:50:07;1.50;;;1.30;;
25870;SDS011;13689;48.590;7.752;2023-06-05T08:52:33;8.27;;;1.80;;
25870;SDS011;13689;48.590;7.752;2023-06-05T08:55:00;2.13;;;1.70;;
25870;SDS011;13689;48.590;7.752;2023-06-05T08:57:28;4.80;;;1.75;;
25870;SDS011;13689;48.590;7.752;2023-06-05T08:59:53;2.33;;;1.67;;
25870;SDS011;13689;48.590;7.752;2023-06-05T09:02:19;4.93;;;1.80;;
25870;SDS011;13689;48.590;7.752;2023-06-05T09:04:45;7.60;;;1.45;;
25870;SDS011;13689;48.590;7.752;2023-06-05T09:07:12;4.80;;;1.73;;
25870;SDS011;13689;48.590;7.752;2023-06-05T09:09:38;3.03;;;1.60;;
25870;SDS011;13689;48.590;7.752;2023-06-05T09:12:06;4.13;;;1.85;;
25870;SDS011;13689;48.590;7.752;2023-06-05T09:14:32;7.45;;;1.92;;
25870;SDS011;13689;48.590;7.752;2023-06-05T09:16:59;4.28;;;1.60;;
25870;SDS011;13689;48.590;7.752;2023-06-05T09:19:34;8.32;;;1.75;;
25870;SDS011;13689;48.590;7.752;2023-06-05T09:22:05;1.52;;;1.42;;
25870;SDS011;13689;48.590;7.752;2023-06-05T09:24:32;7.32;;;1.95;;
25870;SDS011;13689;48.590;7.752;2023-06-05T09:27:05;5.63;;;1.73;;
25870;SDS011;13689;48.590;7.752;2023-06-05T09:29:36;5.70;;;1.92;;
25870;SDS011;13689;48.590;7.752;2023-06-05T09:32:04;3.72;;;1.65;;
25870;SDS011;13689;48.590;7.752;2023-06-05T09:34:58;4.85;;;1.88;;
25870;SDS011;13689;48.590;7.752;2023-06-05T09:37:32;2.42;;;1.40;;
25870;SDS011;13689;48.590;7.752;2023-06-05T09:40:00;4.38;;;1.60;;
25870;SDS011;13689;48.590;7.752;2023-06-05T09:42:32;8.20;;;1.75;;
25870;SDS011;13689;48.590;7.752;2023-06-05T09:44:59;5.65;;;2.05;;
25870;SDS011;13689;48.590;7.752;2023-06-05T09:47:25;6.07;;;1.83;;
25870;SDS011;13689;48.590;7.752;2023-06-05T09:49:51;5.40;;;1.80;;
25870;SDS011;13689;48.590;7.752;2023-06-05T09:52:16;6.55;;;1.98;;
25870;SDS011;13689;48.590;7.752;2023-06-05T09:54:45;6.93;;;2.22;;
25870;SDS011;13689;48.590;7.752;2023-06-05T09:57:12;2.97;;;1.70;;
25870;SDS011;13689;48.590;7.752;2023-06-05T09:59:40;3.83;;;2.15;;
25870;SDS011;13689;48.590;7.752;2023-06-05T10:02:19;6.50;;;1.60;;
25870;SDS011;13689;48.590;7.752;2023-06-05T10:04:56;3.97;;;1.70;;
25870;SDS011;13689;48.590;7.752;2023-06-05T10:07:28;6.30;;;1.77;;
25870;SDS011;13689;48.590;7.752;2023-06-05T10:09:57;3.72;;;1.70;;
25870;SDS011;13689;48.590;7.752;2023-06-05T10:12:23;2.83;;;1.70;;
25870;SDS011;13689;48.590;7.752;2023-06-05T10:14:52;4.72;;;1.67;;
25870;SDS011;13689;48.590;7.752;2023-06-05T10:17:20;2.55;;;1.60;;
25870;SDS011;13689;48.590;7.752;2023-06-05T10:19:46;4.57;;;1.60;;
25870;SDS011;13689;48.590;7.752;2023-06-05T10:22:12;4.97;;;1.73;;
25870;SDS011;13689;48.590;7.752;2023-06-05T10:24:43;7.97;;;1.85;;
25870;SDS011;13689;48.590;7.752;2023-06-05T10:32:44;4.00;;;2.05;;
25870;SDS011;13689;48.590;7.752;2023-06-05T10:38:21;3.58;;;1.70;;
25870;SDS011;13689;48.590;7.752;2023-06-05T10:40:59;9.60;;;2.20;;
25870;SDS011;13689;48.590;7.752;2023-06-05T10:43:31;6.70;;;1.70;;
25870;SDS011;13689;48.590;7.752;2023-06-05T10:45:57;5.57;;;1.65;;
25870;SDS011;13689;48.590;7.752;2023-06-05T10:49:08;4.80;;;2.20;;
25870;SDS011;13689;48.590;7.752;2023-06-05T10:54:07;6.65;;;2.10;;
25870;SDS011;13689;48.590;7.752;2023-06-05T10:56:52;5.50;;;2.10;;
25870;SDS011;13689;48.590;7.752;2023-06-05T10:59:19;4.07;;;2.40;;
25870;SDS011;13689;48.590;7.752;2023-06-05T11:02:21;4.43;;;2.10;;
25870;SDS011;13689;48.590;7.752;2023-06-05T11:07:14;2.00;;;1.35;;
25870;SDS011;13689;48.590;7.752;2023-06-05T11:15:05;7.15;;;2.70;;
25870;SDS011;13689;48.590;7.752;2023-06-05T11:19:59;4.40;;;1.40;;
25870;SDS011;13689;48.590;7.752;2023-06-05T11:23:06;3.42;;;2.50;;
25870;SDS011;13689;48.590;7.752;2023-06-05T11:28:06;7.00;;;2.33;;
25870;SDS011;13689;48.590;7.752;2023-06-05T11:30:40;6.32;;;2.85;;
25870;SDS011;13689;48.590;7.752;2023-06-05T11:33:11;4.03;;;2.95;;
25870;SDS011;13689;48.590;7.752;2023-06-05T11:35:38;4.40;;;2.00;;
25870;SDS011;13689;48.590;7.752;2023-06-05T11:38:14;4.53;;;2.47;;
25870;SDS011;13689;48.590;7.752;2023-06-05T11:40:42;6.07;;;2.75;;
25870;SDS011;13689;48.590;7.752;2023-06-05T11:43:10;3.40;;;2.13;;
25870;SDS011;13689;48.590;7.752;2023-06-05T11:45:37;3.13;;;2.40;;
25870;SDS011;13689;48.590;7.752;2023-06-05T11:48:07;7.13;;;2.83;;
25870;SDS011;13689;48.590;7.752;2023-06-05T11:51:21;3.03;;;2.10;;
25870;SDS011;13689;48.590;7.752;2023-06-05T11:53:24;6.45;;;2.92;;
25870;SDS011;13689;48.590;7.752;2023-06-05T11:55:54;6.03;;;3.20;;
25870;SDS011;13689;48.590;7.752;2023-06-05T11:58:32;10.32;;;3.00;;
25870;SDS011;13689;48.590;7.752;2023-06-05T12:03:37;6.50;;;2.53;;
25870;SDS011;13689;48.590;7.752;2023-06-05T12:06:04;3.70;;;2.45;;
25870;SDS011;13689;48.590;7.752;2023-06-05T12:08:31;6.65;;;2.95;;
25870;SDS011;13689;48.590;7.752;2023-06-05T12:10:58;12.50;;;2.92;;
25870;SDS011;13689;48.590;7.752;2023-06-05T12:16:10;5.63;;;2.80;;
25870;SDS011;13689;48.590;7.752;2023-06-05T12:18:35;6.18;;;2.13;;
25870;SDS011;13689;48.590;7.752;2023-06-05T12:21:01;3.53;;;2.80;;
25870;SDS011;13689;48.590;7.752;2023-06-05T12:23:30;17.00;;;3.67;;
25870;SDS011;13689;48.590;7.752;2023-06-05T12:25:58;9.93;;;2.78;;
25870;SDS011;13689;48.590;7.752;2023-06-05T12:28:28;7.32;;;2.92;;
25870;SDS011;13689;48.590;7.752;2023-06-05T12:30:54;5.40;;;3.30;;
25870;SDS011;13689;48.590;7.752;2023-06-05T12:33:21;8.77;;;2.60;;
25870;SDS011;13689;48.590;7.752;2023-06-05T12:36:08;6.50;;;2.90;;
25870;SDS011;13689;48.590;7.752;2023-06-05T12:38:38;8.82;;;2.75;;
25870;SDS011;13689;48.590;7.752;2023-06-05T12:41:05;7.38;;;2.95;;
25870;SDS011;13689;48.590;7.752;2023-06-05T12:43:32;2.07;;;1.87;;
25870;SDS011;13689;48.590;7.752;2023-06-05T12:45:58;5.10;;;2.75;;
25870;SDS011;13689;48.590;7.752;2023-06-05T12:48:24;3.00;;;1.92;;
25870;SDS011;13689;48.590;7.752;2023-06-05T12:50:53;4.80;;;2.92;;
25870;SDS011;13689;48.590;7.752;2023-06-05T12:53:21;2.90;;;2.60;;
25870;SDS011;13689;48.590;7.752;2023-06-05T12:55:46;3.95;;;2.10;;
25870;SDS011;13689;48.590;7.752;2023-06-05T12:58:12;4.03;;;2.33;;
25870;SDS011;13689;48.590;7.752;2023-06-05T13:00:38;8.13;;;3.03;;
25870;SDS011;13689;48.590;7.752;2023-06-05T13:03:03;5.35;;;3.00;;
25870;SDS011;13689;48.590;7.752;2023-06-05T13:05:32;4.45;;;2.47;;
25870;SDS011;13689;48.590;7.752;2023-06-05T13:07:58;4.47;;;3.15;;
25870;SDS011;13689;48.590;7.752;2023-06-05T13:10:23;6.57;;;3.30;;
25870;SDS011;13689;48.590;7.752;2023-06-05T13:12:49;8.10;;;3.08;;
25870;SDS011;13689;48.590;7.752;2023-06-05T13:15:15;7.22;;;2.80;;
25870;SDS011;13689;48.590;7.752;2023-06-05T13:17:41;8.70;;;3.22;;
25870;SDS011;13689;48.590;7.752;2023-06-05T13:20:08;8.77;;;3.05;;
25870;SDS011;13689;48.590;7.752;2023-06-05T13:22:35;8.27;;;3.20;;
25870;SDS011;13689;48.590;7.752;2023-06-05T13:25:10;5.47;;;3.05;;
25870;SDS011;13689;48.590;7.752;2023-06-05T13:27:37;23.80;;;5.23;;
25870;SDS011;13689;48.590;7.752;2023-06-05T13:30:03;6.40;;;3.08;;
25870;SDS011;13689;48.590;7.752;2023-06-05T13:32:29;3.70;;;2.75;;
25870;SDS011;13689;48.590;7.752;2023-06-05T13:34:59;3.75;;;2.97;;
25870;SDS011;13689;48.590;7.752;2023-06-05T13:37:24;6.70;;;3.00;;
25870;SDS011;13689;48.590;7.752;2023-06-05T13:39:50;8.52;;;3.67;;
25870;SDS011;13689;48.590;7.752;2023-06-05T13:42:16;5.25;;;2.65;;
25870;SDS011;13689;48.590;7.752;2023-06-05T13:44:43;8.63;;;2.50;;
25870;SDS011;13689;48.590;7.752;2023-06-05T13:47:08;8.27;;;3.45;;
25870;SDS011;13689;48.590;7.752;2023-06-05T13:49:34;8.57;;;3.45;;
25870;SDS011;13689;48.590;7.752;2023-06-05T13:52:00;9.52;;;3.50;;
25870;SDS011;13689;48.590;7.752;2023-06-05T13:54:25;5.38;;;2.83;;
25870;SDS011;13689;48.590;7.752;2023-06-05T13:56:51;10.70;;;3.90;;
25870;SDS011;13689;48.590;7.752;2023-06-05T13:59:18;12.37;;;3.33;;
25870;SDS011;13689;48.590;7.752;2023-06-05T14:01:44;10.50;;;3.42;;
25870;SDS011;13689;48.590;7.752;2023-06-05T14:04:09;6.93;;;3.30;;
25870;SDS011;13689;48.590;7.752;2023-06-05T14:06:35;16.52;;;3.30;;
25870;SDS011;13689;48.590;7.752;2023-06-05T14:09:03;5.47;;;3.38;;
25870;SDS011;13689;48.590;7.752;2023-06-05T14:11:31;4.55;;;2.80;;
25870;SDS011;13689;48.590;7.752;2023-06-05T14:13:56;3.47;;;2.90;;
25870;SDS011;13689;48.590;7.752;2023-06-05T14:16:22;6.40;;;3.60;;
25870;SDS011;13689;48.590;7.752;2023-06-05T14:18:48;4.78;;;2.90;;
25870;SDS011;13689;48.590;7.752;2023-06-05T14:21:13;3.95;;;1.60;;
25870;SDS011;13689;48.590;7.752;2023-06-05T14:23:39;4.53;;;3.35;;
25870;SDS011;13689;48.590;7.752;2023-06-05T14:26:05;6.05;;;3.15;;
25870;SDS011;13689;48.590;7.752;2023-06-05T14:28:30;7.75;;;3.50;;
25870;SDS011;13689;48.590;7.752;2023-06-05T14:30:56;4.90;;;3.35;;
25870;SDS011;13689;48.590;7.752;2023-06-05T14:33:22;4.38;;;2.58;;
25870;SDS011;13689;48.590;7.752;2023-06-05T14:35:47;6.07;;;3.25;;
25870;SDS011;13689;48.590;7.752;2023-06-05T14:38:13;4.53;;;2.80;;
25870;SDS011;13689;48.590;7.752;2023-06-05T14:40:39;8.63;;;3.38;;
25870;SDS011;13689;48.590;7.752;2023-06-05T14:43:05;7.43;;;3.15;;
25870;SDS011;13689;48.590;7.752;2023-06-05T14:45:30;4.07;;;2.55;;
25870;SDS011;13689;48.590;7.752;2023-06-05T14:47:57;4.40;;;3.50;;
25870;SDS011;13689;48.590;7.752;2023-06-05T14:50:22;5.88;;;3.60;;
25870;SDS011;13689;48.590;7.752;2023-06-05T14:52:48;4.43;;;2.35;;
25870;SDS011;13689;48.590;7.752;2023-06-05T14:55:14;4.13;;;3.08;;
25870;SDS011;13689;48.590;7.752;2023-06-05T14:57:39;7.32;;;3.45;;
25870;SDS011;13689;48.590;7.752;2023-06-05T15:00:05;3.28;;;2.92;;
25870;SDS011;13689;48.590;7.752;2023-06-05T15:02:32;5.45;;;2.85;;
25870;SDS011;13689;48.590;7.752;2023-06-05T15:04:58;5.05;;;2.55;;
25870;SDS011;13689;48.590;7.752;2023-06-05T15:07:24;6.40;;;3.20;;
25870;SDS011;13689;48.590;7.752;2023-06-05T15:09:50;3.05;;;1.77;;
25870;SDS011;13689;48.590;7.752;2023-06-05T15:12:16;6.03;;;2.75;;
25870;SDS011;13689;48.590;7.752;2023-06-05T15:14:42;6.85;;;3.15;;
25870;SDS011;13689;48.590;7.752;2023-06-05T15:17:08;4.53;;;2.58;;
25870;SDS011;13689;48.590;7.752;2023-06-05T15:19:34;6.55;;;2.85;;
25870;SDS011;13689;48.590;7.752;2023-06-05T15:22:00;4.30;;;2.80;;
25870;SDS011;13689;48.590;7.752;2023-06-05T15:24:28;9.15;;;2.75;;